sensor_id;sensor_type;location;lat;lon;timestamp;P1;durP1;ratioP1;P2;durP2;ratioP2
37455;SDS011;23316;50.718;7.328;2022-08-21T00:00:08;8.75;;;4.05;;
37455;SDS011;23316;50.718;7.328;2022-08-21T00:02:45;8.43;;;4.25;;
37455;SDS011;23316;50.718;7.328;2022-08-21T00:05:14;8.73;;;3.35;;
37455;SDS011;23316;50.718;7.328;2022-08-21T00:07:42;9.13;;;4.07;;
37455;SDS011;23316;50.718;7.328;2022-08-21T00:10:09;7.05;;;3.58;;
37455;SDS011;23316;50.718;7.328;2022-08-21T00:12:37;6.53;;;3.75;;
37455;SDS011;23316;50.718;7.328;2022-08-21T00:15:06;6.30;;;3.35;;
37455;SDS011;23316;50.718;7.328;2022-08-21T00:17:35;11.15;;;4.25;;
37455;SDS011;23316;50.718;7.328;2022-08-21T00:20:05;6.82;;;3.92;;
37455;SDS011;23316;50.718;7.328;2022-08-21T00:22:34;8.70;;;3.92;;
37455;SDS011;23316;50.718;7.328;2022-08-21T00:25:02;8.75;;;4.07;;
37455;SDS011;23316;50.718;7.328;2022-08-21T00:27:31;9.90;;;3.92;;
37455;SDS011;23316;50.718;7.328;2022-08-21T00:29:58;7.15;;;3.88;;
37455;SDS011;23316;50.718;7.328;2022-08-21T00:32:26;7.25;;;4.13;;
37455;SDS011;23316;50.718;7.328;2022-08-21T00:34:54;7.60;;;3.60;;
37455;SDS011;23316;50.718;7.328;2022-08-21T00:37:23;10.98;;;4.10;;
37455;SDS011;23316;50.718;7.328;2022-08-21T00:39:51;9.15;;;4.05;;
37455;SDS011;23316;50.718;7.328;2022-08-21T00:42:18;8.80;;;4.22;;
37455;SDS011;23316;50.718;7.328;2022-08-21T00:44:46;6.55;;;3.90;;
37455;SDS011;23316;50.718;7.328;2022-08-21T00:47:15;7.70;;;3.78;;
37455;SDS011;23316;50.718;7.328;2022-08-21T00:49:43;7.38;;;3.65;;
37455;SDS011;23316;50.718;7.328;2022-08-21T00:52:12;9.50;;;4.55;;
37455;SDS011;23316;50.718;7.328;2022-08-21T00:54:42;10.10;;;4.15;;
37455;SDS011;23316;50.718;7.328;2022-08-21T00:57:10;8.32;;;4.05;;
37455;SDS011;23316;50.718;7.328;2022-08-21T00:59:43;9.35;;;4.22;;
37455;SDS011;23316;50.718;7.328;2022-08-21T01:02:15;9.43;;;4.07;;
37455;SDS011;23316;50.718;7.328;2022-08-21T01:04:43;11.02;;;4.32;;
37455;SDS011;23316;50.718;7.328;2022-08-21T01:07:11;9.88;;;3.90;;
37455;SDS011;23316;50.718;7.328;2022-08-21T01:09:39;9.50;;;4.25;;
37455;SDS011;23316;50.718;7.328;2022-08-21T01:12:08;7.85;;;3.80;;
37455;SDS011;23316;50.718;7.328;2022-08-21T01:14:36;9.93;;;4.18;;
37455;SDS011;23316;50.718;7.328;2022-08-21T01:17:04;6.93;;;4.05;;
37455;SDS011;23316;50.718;7.328;2022-08-21T01:19:32;8.38;;;4.38;;
37455;SDS011;23316;50.718;7.328;2022-08-21T01:22:01;11.55;;;4.43;;
37455;SDS011;23316;50.718;7.328;2022-08-21T01:24:28;12.13;;;4.57;;
37455;SDS011;23316;50.718;7.328;2022-08-21T01:26:57;8.95;;;4.18;;
37455;SDS011;23316;50.718;7.328;2022-08-21T01:29:26;7.38;;;4.10;;
37455;SDS011;23316;50.718;7.328;2022-08-21T01:31:58;8.00;;;4.35;;
37455;SDS011;23316;50.718;7.328;2022-08-21T01:34:26;10.73;;;4.78;;
37455;SDS011;23316;50.718;7.328;2022-08-21T01:36:53;6.70;;;3.80;;
37455;SDS011;23316;50.718;7.328;2022-08-21T01:39:21;10.98;;;4.65;;
37455;SDS011;23316;50.718;7.328;2022-08-21T01:41:49;11.30;;;4.30;;
37455;SDS011;23316;50.718;7.328;2022-08-21T01:44:16;10.50;;;4.63;;
37455;SDS011;23316;50.718;7.328;2022-08-21T01:46:47;8.40;;;4.00;;
37455;SDS011;23316;50.718;7.328;2022-08-21T01:49:14;9.32;;;4.60;;
37455;SDS011;23316;50.718;7.328;2022-08-21T01:51:42;8.48;;;4.40;;
37455;SDS011;23316;50.718;7.328;2022-08-21T01:54:10;9.63;;;4.47;;
37455;SDS011;23316;50.718;7.328;2022-08-21T01:56:39;11.65;;;4.30;;
37455;SDS011;23316;50.718;7.328;2022-08-21T01:59:09;8.25;;;3.75;;
37455;SDS011;23316;50.718;7.328;2022-08-21T02:01:36;10.07;;;4.90;;
37455;SDS011;23316;50.718;7.328;2022-08-21T02:04:05;11.00;;;4.72;;
37455;SDS011;23316;50.718;7.328;2022-08-21T02:06:33;9.90;;;3.95;;
37455;SDS011;23316;50.718;7.328;2022-08-21T02:09:01;8.27;;;4.55;;
37455;SDS011;23316;50.718;7.328;2022-08-21T02:11:30;8.57;;;4.22;;
37455;SDS011;23316;50.718;7.328;2022-08-21T02:13:59;10.63;;;4.50;;
37455;SDS011;23316;50.718;7.328;2022-08-21T02:16:27;7.43;;;4.28;;
37455;SDS011;23316;50.718;7.328;2022-08-21T02:18:54;6.88;;;3.80;;
37455;SDS011;23316;50.718;7.328;2022-08-21T02:21:21;8.73;;;4.60;;
37455;SDS011;23316;50.718;7.328;2022-08-21T02:23:48;8.23;;;4.68;;
37455;SDS011;23316;50.718;7.328;2022-08-21T02:26:15;9.65;;;4.45;;
37455;SDS011;23316;50.718;7.328;2022-08-21T02:28:43;9.38;;;4.72;;
37455;SDS011;23316;50.718;7.328;2022-08-21T02:31:12;11.13;;;4.93;;
37455;SDS011;23316;50.718;7.328;2022-08-21T02:33:39;9.68;;;4.45;;
37455;SDS011;23316;50.718;7.328;2022-08-21T02:36:07;11.18;;;4.47;;
37455;SDS011;23316;50.718;7.328;2022-08-21T02:38:35;7.93;;;4.45;;
37455;SDS011;23316;50.718;7.328;2022-08-21T02:41:04;7.05;;;3.90;;
37455;SDS011;23316;50.718;7.328;2022-08-21T02:43:33;10.80;;;4.32;;
37455;SDS011;23316;50.718;7.328;2022-08-21T02:46:02;7.93;;;4.57;;
37455;SDS011;23316;50.718;7.328;2022-08-21T02:48:32;12.10;;;4.97;;
37455;SDS011;23316;50.718;7.328;2022-08-21T02:51:01;9.98;;;4.60;;
37455;SDS011;23316;50.718;7.328;2022-08-21T02:53:30;10.30;;;5.18;;
37455;SDS011;23316;50.718;7.328;2022-08-21T02:56:00;11.35;;;4.93;;
37455;SDS011;23316;50.718;7.328;2022-08-21T02:58:32;11.70;;;5.35;;
37455;SDS011;23316;50.718;7.328;2022-08-21T03:01:10;10.30;;;4.70;;
37455;SDS011;23316;50.718;7.328;2022-08-21T03:03:40;9.25;;;4.22;;
37455;SDS011;23316;50.718;7.328;2022-08-21T03:06:09;9.13;;;5.10;;
37455;SDS011;23316;50.718;7.328;2022-08-21T03:08:38;7.78;;;4.70;;
37455;SDS011;23316;50.718;7.328;2022-08-21T03:11:06;7.68;;;4.55;;
37455;SDS011;23316;50.718;7.328;2022-08-21T03:13:34;8.55;;;4.22;;
37455;SDS011;23316;50.718;7.328;2022-08-21T03:16:01;6.68;;;4.05;;
37455;SDS011;23316;50.718;7.328;2022-08-21T03:18:29;8.88;;;3.90;;
37455;SDS011;23316;50.718;7.328;2022-08-21T03:20:58;9.38;;;5.10;;
37455;SDS011;23316;50.718;7.328;2022-08-21T03:23:25;10.82;;;4.28;;
37455;SDS011;23316;50.718;7.328;2022-08-21T03:25:52;10.73;;;4.40;;
37455;SDS011;23316;50.718;7.328;2022-08-21T03:28:20;11.55;;;4.28;;
37455;SDS011;23316;50.718;7.328;2022-08-21T03:30:49;8.95;;;4.57;;
37455;SDS011;23316;50.718;7.328;2022-08-21T03:33:18;9.50;;;4.88;;
37455;SDS011;23316;50.718;7.328;2022-08-21T03:35:47;8.32;;;4.20;;
37455;SDS011;23316;50.718;7.328;2022-08-21T03:38:19;10.85;;;4.63;;
37455;SDS011;23316;50.718;7.328;2022-08-21T03:40:47;11.20;;;5.00;;
37455;SDS011;23316;50.718;7.328;2022-08-21T03:43:14;10.73;;;5.00;;
37455;SDS011;23316;50.718;7.328;2022-08-21T03:45:42;8.18;;;4.45;;
37455;SDS011;23316;50.718;7.328;2022-08-21T03:48:09;11.85;;;4.85;;
37455;SDS011;23316;50.718;7.328;2022-08-21T03:50:40;10.20;;;4.57;;
37455;SDS011;23316;50.718;7.328;2022-08-21T03:53:10;6.93;;;4.30;;
37455;SDS011;23316;50.718;7.328;2022-08-21T03:55:39;9.65;;;4.70;;
37455;SDS011;23316;50.718;7.328;2022-08-21T03:58:07;12.90;;;5.18;;
37455;SDS011;23316;50.718;7.328;2022-08-21T04:00:34;8.90;;;4.60;;
37455;SDS011;23316;50.718;7.328;2022-08-21T04:03:02;10.00;;;4.70;;
37455;SDS011;23316;50.718;7.328;2022-08-21T04:05:30;9.60;;;4.63;;
37455;SDS011;23316;50.718;7.328;2022-08-21T04:07:59;10.60;;;4.78;;
37455;SDS011;23316;50.718;7.328;2022-08-21T04:10:28;12.27;;;6.35;;
37455;SDS011;23316;50.718;7.328;2022-08-21T04:12:58;8.90;;;4.88;;
37455;SDS011;23316;50.718;7.328;2022-08-21T04:15:25;8.98;;;4.70;;
37455;SDS011;23316;50.718;7.328;2022-08-21T04:17:53;7.32;;;4.47;;
37455;SDS011;23316;50.718;7.328;2022-08-21T04:20:21;10.52;;;4.35;;
37455;SDS011;23316;50.718;7.328;2022-08-21T04:22:50;7.72;;;4.30;;
37455;SDS011;23316;50.718;7.328;2022-08-21T04:25:19;7.60;;;4.45;;
37455;SDS011;23316;50.718;7.328;2022-08-21T04:27:48;10.50;;;4.68;;
37455;SDS011;23316;50.718;7.328;2022-08-21T04:30:17;9.98;;;5.32;;
37455;SDS011;23316;50.718;7.328;2022-08-21T04:32:45;7.50;;;3.92;;
37455;SDS011;23316;50.718;7.328;2022-08-21T04:35:14;8.05;;;4.30;;
37455;SDS011;23316;50.718;7.328;2022-08-21T04:37:42;9.40;;;4.85;;
37455;SDS011;23316;50.718;7.328;2022-08-21T04:40:10;7.63;;;4.95;;
37455;SDS011;23316;50.718;7.328;2022-08-21T04:42:42;11.30;;;5.57;;
37455;SDS011;23316;50.718;7.328;2022-08-21T04:45:19;10.10;;;5.40;;
37455;SDS011;23316;50.718;7.328;2022-08-21T04:47:49;11.88;;;4.55;;
37455;SDS011;23316;50.718;7.328;2022-08-21T04:50:17;10.85;;;5.22;;
37455;SDS011;23316;50.718;7.328;2022-08-21T04:52:44;10.90;;;4.35;;
37455;SDS011;23316;50.718;7.328;2022-08-21T04:55:12;20.90;;;9.43;;
37455;SDS011;23316;50.718;7.328;2022-08-21T04:57:40;53.47;;;25.73;;
37455;SDS011;23316;50.718;7.328;2022-08-21T05:00:09;21.15;;;9.98;;
37455;SDS011;23316;50.718;7.328;2022-08-21T05:02:39;11.18;;;6.40;;
37455;SDS011;23316;50.718;7.328;2022-08-21T05:05:07;9.98;;;4.63;;
37455;SDS011;23316;50.718;7.328;2022-08-21T05:07:35;10.15;;;4.47;;
37455;SDS011;23316;50.718;7.328;2022-08-21T05:10:03;9.73;;;4.38;;
37455;SDS011;23316;50.718;7.328;2022-08-21T05:12:33;8.13;;;4.20;;
37455;SDS011;23316;50.718;7.328;2022-08-21T05:15:01;13.02;;;4.70;;
37455;SDS011;23316;50.718;7.328;2022-08-21T05:17:29;8.90;;;4.50;;
37455;SDS011;23316;50.718;7.328;2022-08-21T05:19:57;12.02;;;4.53;;
37455;SDS011;23316;50.718;7.328;2022-08-21T05:22:24;9.23;;;4.13;;
37455;SDS011;23316;50.718;7.328;2022-08-21T05:24:52;8.85;;;4.63;;
37455;SDS011;23316;50.718;7.328;2022-08-21T05:27:19;9.88;;;4.28;;
37455;SDS011;23316;50.718;7.328;2022-08-21T05:29:46;12.75;;;4.82;;
37455;SDS011;23316;50.718;7.328;2022-08-21T05:32:14;8.95;;;4.95;;
37455;SDS011;23316;50.718;7.328;2022-08-21T05:34:41;14.52;;;5.13;;
37455;SDS011;23316;50.718;7.328;2022-08-21T05:37:11;8.23;;;4.22;;
37455;SDS011;23316;50.718;7.328;2022-08-21T05:39:38;7.22;;;4.20;;
37455;SDS011;23316;50.718;7.328;2022-08-21T05:42:05;10.80;;;4.40;;
37455;SDS011;23316;50.718;7.328;2022-08-21T05:44:33;9.10;;;4.22;;
37455;SDS011;23316;50.718;7.328;2022-08-21T05:47:04;8.05;;;4.35;;
37455;SDS011;23316;50.718;7.328;2022-08-21T05:49:32;8.18;;;4.38;;
37455;SDS011;23316;50.718;7.328;2022-08-21T05:51:59;8.63;;;4.35;;
37455;SDS011;23316;50.718;7.328;2022-08-21T05:54:29;13.63;;;4.68;;
37455;SDS011;23316;50.718;7.328;2022-08-21T05:56:56;12.02;;;5.07;;
37455;SDS011;23316;50.718;7.328;2022-08-21T05:59:23;11.38;;;4.70;;
37455;SDS011;23316;50.718;7.328;2022-08-21T06:01:51;6.85;;;4.30;;
37455;SDS011;23316;50.718;7.328;2022-08-21T06:04:18;9.82;;;4.20;;
37455;SDS011;23316;50.718;7.328;2022-08-21T06:06:45;7.93;;;3.97;;
37455;SDS011;23316;50.718;7.328;2022-08-21T06:09:13;9.15;;;4.35;;
37455;SDS011;23316;50.718;7.328;2022-08-21T06:11:42;8.52;;;4.32;;
37455;SDS011;23316;50.718;7.328;2022-08-21T06:14:09;6.10;;;4.40;;
37455;SDS011;23316;50.718;7.328;2022-08-21T06:16:39;10.73;;;4.35;;
37455;SDS011;23316;50.718;7.328;2022-08-21T06:19:07;7.97;;;3.67;;
37455;SDS011;23316;50.718;7.328;2022-08-21T06:21:34;8.90;;;4.18;;
37455;SDS011;23316;50.718;7.328;2022-08-21T06:24:01;11.35;;;4.90;;
37455;SDS011;23316;50.718;7.328;2022-08-21T06:26:30;11.20;;;4.10;;
37455;SDS011;23316;50.718;7.328;2022-08-21T06:28:58;6.68;;;4.13;;
37455;SDS011;23316;50.718;7.328;2022-08-21T06:31:26;7.45;;;3.83;;
37455;SDS011;23316;50.718;7.328;2022-08-21T06:33:54;8.10;;;3.85;;
37455;SDS011;23316;50.718;7.328;2022-08-21T06:36:22;7.40;;;3.78;;
37455;SDS011;23316;50.718;7.328;2022-08-21T06:38:50;9.00;;;4.10;;
37455;SDS011;23316;50.718;7.328;2022-08-21T06:41:18;9.35;;;4.63;;
37455;SDS011;23316;50.718;7.328;2022-08-21T06:43:45;10.52;;;4.22;;
37455;SDS011;23316;50.718;7.328;2022-08-21T06:46:14;7.03;;;4.20;;
37455;SDS011;23316;50.718;7.328;2022-08-21T06:48:41;7.75;;;4.07;;
37455;SDS011;23316;50.718;7.328;2022-08-21T06:51:08;10.57;;;4.22;;
37455;SDS011;23316;50.718;7.328;2022-08-21T06:53:36;12.32;;;4.40;;
37455;SDS011;23316;50.718;7.328;2022-08-21T06:56:03;10.52;;;4.53;;
37455;SDS011;23316;50.718;7.328;2022-08-21T06:58:31;10.52;;;4.65;;
37455;SDS011;23316;50.718;7.328;2022-08-21T07:00:58;14.55;;;4.35;;
37455;SDS011;23316;50.718;7.328;2022-08-21T07:03:27;8.60;;;4.30;;
37455;SDS011;23316;50.718;7.328;2022-08-21T07:06:00;11.90;;;5.35;;
37455;SDS011;23316;50.718;7.328;2022-08-21T07:08:27;8.77;;;3.92;;
37455;SDS011;23316;50.718;7.328;2022-08-21T07:10:56;10.60;;;4.70;;
37455;SDS011;23316;50.718;7.328;2022-08-21T07:13:26;10.10;;;5.57;;
37455;SDS011;23316;50.718;7.328;2022-08-21T07:15:54;13.95;;;6.10;;
37455;SDS011;23316;50.718;7.328;2022-08-21T07:18:21;12.77;;;6.03;;
37455;SDS011;23316;50.718;7.328;2022-08-21T07:20:49;14.50;;;5.53;;
37455;SDS011;23316;50.718;7.328;2022-08-21T07:23:18;8.50;;;4.03;;
37455;SDS011;23316;50.718;7.328;2022-08-21T07:25:49;13.43;;;6.60;;
37455;SDS011;23316;50.718;7.328;2022-08-21T07:28:16;11.50;;;5.10;;
37455;SDS011;23316;50.718;7.328;2022-08-21T07:30:43;16.95;;;6.32;;
37455;SDS011;23316;50.718;7.328;2022-08-21T07:33:11;14.82;;;6.10;;
37455;SDS011;23316;50.718;7.328;2022-08-21T07:35:39;17.90;;;7.22;;
37455;SDS011;23316;50.718;7.328;2022-08-21T07:38:08;21.90;;;7.00;;
37455;SDS011;23316;50.718;7.328;2022-08-21T07:40:35;16.65;;;6.63;;
37455;SDS011;23316;50.718;7.328;2022-08-21T07:43:02;18.60;;;6.40;;
37455;SDS011;23316;50.718;7.328;2022-08-21T07:45:30;10.25;;;5.22;;
37455;SDS011;23316;50.718;7.328;2022-08-21T07:47:57;14.02;;;6.00;;
37455;SDS011;23316;50.718;7.328;2022-08-21T07:50:24;13.68;;;5.70;;
37455;SDS011;23316;50.718;7.328;2022-08-21T07:52:52;15.52;;;7.32;;
37455;SDS011;23316;50.718;7.328;2022-08-21T07:55:21;11.85;;;6.93;;
37455;SDS011;23316;50.718;7.328;2022-08-21T07:57:49;13.07;;;5.53;;
37455;SDS011;23316;50.718;7.328;2022-08-21T08:00:17;12.68;;;6.13;;
37455;SDS011;23316;50.718;7.328;2022-08-21T08:02:47;19.77;;;7.78;;
37455;SDS011;23316;50.718;7.328;2022-08-21T08:05:16;19.98;;;9.02;;
37455;SDS011;23316;50.718;7.328;2022-08-21T08:07:45;18.48;;;9.45;;
37455;SDS011;23316;50.718;7.328;2022-08-21T08:10:13;24.83;;;9.05;;
37455;SDS011;23316;50.718;7.328;2022-08-21T08:12:42;18.95;;;8.60;;
37455;SDS011;23316;50.718;7.328;2022-08-21T08:15:11;19.05;;;8.70;;
37455;SDS011;23316;50.718;7.328;2022-08-21T08:17:41;14.18;;;7.28;;
37455;SDS011;23316;50.718;7.328;2022-08-21T08:20:09;16.02;;;7.85;;
37455;SDS011;23316;50.718;7.328;2022-08-21T08:22:39;23.48;;;10.27;;
37455;SDS011;23316;50.718;7.328;2022-08-21T08:25:08;21.70;;;9.20;;
37455;SDS011;23316;50.718;7.328;2022-08-21T08:27:38;24.00;;;9.10;;
37455;SDS011;23316;50.718;7.328;2022-08-21T08:30:08;21.63;;;9.38;;
37455;SDS011;23316;50.718;7.328;2022-08-21T08:32:38;19.70;;;9.55;;
37455;SDS011;23316;50.718;7.328;2022-08-21T08:35:06;25.30;;;8.80;;
37455;SDS011;23316;50.718;7.328;2022-08-21T08:37:35;17.33;;;7.93;;
37455;SDS011;23316;50.718;7.328;2022-08-21T08:40:06;14.02;;;7.07;;
37455;SDS011;23316;50.718;7.328;2022-08-21T08:42:36;10.50;;;5.93;;
37455;SDS011;23316;50.718;7.328;2022-08-21T08:45:05;17.33;;;6.50;;
37455;SDS011;23316;50.718;7.328;2022-08-21T08:47:37;20.33;;;7.20;;
37455;SDS011;23316;50.718;7.328;2022-08-21T08:50:07;18.65;;;7.28;;
37455;SDS011;23316;50.718;7.328;2022-08-21T08:52:40;19.48;;;6.25;;
37455;SDS011;23316;50.718;7.328;2022-08-21T08:55:11;17.08;;;5.68;;
37455;SDS011;23316;50.718;7.328;2022-08-21T08:57:42;14.05;;;5.68;;
37455;SDS011;23316;50.718;7.328;2022-08-21T09:00:14;13.70;;;5.75;;
37455;SDS011;23316;50.718;7.328;2022-08-21T09:02:46;20.38;;;6.65;;
37455;SDS011;23316;50.718;7.328;2022-08-21T09:05:19;25.83;;;6.43;;
37455;SDS011;23316;50.718;7.328;2022-08-21T09:07:52;14.93;;;5.72;;
37455;SDS011;23316;50.718;7.328;2022-08-21T09:10:30;17.88;;;6.05;;
37455;SDS011;23316;50.718;7.328;2022-08-21T09:13:07;11.98;;;5.07;;
37455;SDS011;23316;50.718;7.328;2022-08-21T09:15:43;19.13;;;6.22;;
37455;SDS011;23316;50.718;7.328;2022-08-21T09:18:20;13.25;;;4.72;;
37455;SDS011;23316;50.718;7.328;2022-08-21T09:21:00;13.13;;;4.97;;
37455;SDS011;23316;50.718;7.328;2022-08-21T09:23:38;15.77;;;4.93;;
37455;SDS011;23316;50.718;7.328;2022-08-21T09:26:13;13.48;;;5.72;;
37455;SDS011;23316;50.718;7.328;2022-08-21T09:28:43;13.55;;;4.07;;
37455;SDS011;23316;50.718;7.328;2022-08-21T09:31:15;9.45;;;3.10;;
37455;SDS011;23316;50.718;7.328;2022-08-21T09:33:48;13.18;;;3.55;;
37455;SDS011;23316;50.718;7.328;2022-08-21T09:36:22;8.65;;;2.80;;
37455;SDS011;23316;50.718;7.328;2022-08-21T09:38:53;9.02;;;2.58;;
37455;SDS011;23316;50.718;7.328;2022-08-21T09:41:25;7.85;;;2.35;;
37455;SDS011;23316;50.718;7.328;2022-08-21T09:43:53;14.00;;;3.33;;
37455;SDS011;23316;50.718;7.328;2022-08-21T09:46:23;9.52;;;2.75;;
37455;SDS011;23316;50.718;7.328;2022-08-21T09:48:53;11.10;;;3.15;;
37455;SDS011;23316;50.718;7.328;2022-08-21T09:51:23;11.20;;;2.92;;
37455;SDS011;23316;50.718;7.328;2022-08-21T09:53:53;10.20;;;3.03;;
37455;SDS011;23316;50.718;7.328;2022-08-21T09:56:28;8.50;;;2.67;;
37455;SDS011;23316;50.718;7.328;2022-08-21T09:59:16;9.65;;;2.75;;
37455;SDS011;23316;50.718;7.328;2022-08-21T10:01:47;5.65;;;2.35;;
37455;SDS011;23316;50.718;7.328;2022-08-21T10:04:19;10.73;;;3.47;;
37455;SDS011;23316;50.718;7.328;2022-08-21T10:06:48;7.80;;;2.50;;
37455;SDS011;23316;50.718;7.328;2022-08-21T10:09:17;7.30;;;2.55;;
37455;SDS011;23316;50.718;7.328;2022-08-21T10:11:49;8.93;;;2.47;;
37455;SDS011;23316;50.718;7.328;2022-08-21T10:14:29;11.05;;;2.42;;
37455;SDS011;23316;50.718;7.328;2022-08-21T10:17:11;13.40;;;3.13;;
37455;SDS011;23316;50.718;7.328;2022-08-21T10:19:50;8.55;;;2.75;;
37455;SDS011;23316;50.718;7.328;2022-08-21T10:22:28;8.32;;;2.40;;
37455;SDS011;23316;50.718;7.328;2022-08-21T10:25:04;6.25;;;2.13;;
37455;SDS011;23316;50.718;7.328;2022-08-21T10:27:40;8.50;;;2.30;;
37455;SDS011;23316;50.718;7.328;2022-08-21T10:30:19;7.82;;;2.17;;
37455;SDS011;23316;50.718;7.328;2022-08-21T10:35:44;9.88;;;2.75;;
37455;SDS011;23316;50.718;7.328;2022-08-21T10:38:33;10.52;;;2.72;;
37455;SDS011;23316;50.718;7.328;2022-08-21T10:41:14;11.90;;;2.92;;
37455;SDS011;23316;50.718;7.328;2022-08-21T10:43:52;9.25;;;2.75;;
37455;SDS011;23316;50.718;7.328;2022-08-21T10:46:31;6.45;;;2.78;;
37455;SDS011;23316;50.718;7.328;2022-08-21T10:49:11;5.85;;;1.75;;
37455;SDS011;23316;50.718;7.328;2022-08-21T10:51:49;7.95;;;2.10;;
37455;SDS011;23316;50.718;7.328;2022-08-21T10:54:30;8.02;;;2.72;;
37455;SDS011;23316;50.718;7.328;2022-08-21T10:57:04;7.47;;;2.38;;
37455;SDS011;23316;50.718;7.328;2022-08-21T10:59:39;4.70;;;1.90;;
37455;SDS011;23316;50.718;7.328;2022-08-21T11:02:12;4.22;;;1.73;;
37455;SDS011;23316;50.718;7.328;2022-08-21T11:04:48;7.55;;;1.80;;
37455;SDS011;23316;50.718;7.328;2022-08-21T11:07:22;7.85;;;2.42;;
37455;SDS011;23316;50.718;7.328;2022-08-21T11:09:56;8.32;;;1.95;;
37455;SDS011;23316;50.718;7.328;2022-08-21T11:12:28;4.82;;;1.92;;
37455;SDS011;23316;50.718;7.328;2022-08-21T11:15:02;5.75;;;1.90;;
37455;SDS011;23316;50.718;7.328;2022-08-21T11:17:39;5.22;;;1.92;;
37455;SDS011;23316;50.718;7.328;2022-08-21T11:20:14;9.00;;;2.03;;
37455;SDS011;23316;50.718;7.328;2022-08-21T11:22:49;3.47;;;1.58;;
37455;SDS011;23316;50.718;7.328;2022-08-21T11:25:22;10.82;;;2.30;;
37455;SDS011;23316;50.718;7.328;2022-08-21T11:27:54;9.40;;;2.55;;
37455;SDS011;23316;50.718;7.328;2022-08-21T11:30:27;9.48;;;1.73;;
37455;SDS011;23316;50.718;7.328;2022-08-21T11:33:04;5.47;;;1.90;;
37455;SDS011;23316;50.718;7.328;2022-08-21T11:35:42;7.35;;;1.55;;
37455;SDS011;23316;50.718;7.328;2022-08-21T11:38:17;10.55;;;2.30;;
37455;SDS011;23316;50.718;7.328;2022-08-21T11:41:03;6.13;;;1.60;;
37455;SDS011;23316;50.718;7.328;2022-08-21T11:43:48;10.27;;;2.13;;
37455;SDS011;23316;50.718;7.328;2022-08-21T11:46:25;8.97;;;2.83;;
37455;SDS011;23316;50.718;7.328;2022-08-21T11:49:06;7.03;;;1.83;;
37455;SDS011;23316;50.718;7.328;2022-08-21T11:51:53;5.63;;;1.60;;
37455;SDS011;23316;50.718;7.328;2022-08-21T11:54:26;6.65;;;1.70;;
37455;SDS011;23316;50.718;7.328;2022-08-21T11:56:58;3.50;;;1.65;;
37455;SDS011;23316;50.718;7.328;2022-08-21T11:59:31;6.22;;;1.90;;
37455;SDS011;23316;50.718;7.328;2022-08-21T12:02:03;7.63;;;2.38;;
37455;SDS011;23316;50.718;7.328;2022-08-21T12:04:42;5.78;;;2.10;;
37455;SDS011;23316;50.718;7.328;2022-08-21T12:07:14;4.75;;;1.85;;
37455;SDS011;23316;50.718;7.328;2022-08-21T12:09:51;5.63;;;1.60;;
37455;SDS011;23316;50.718;7.328;2022-08-21T12:12:23;6.55;;;1.90;;
37455;SDS011;23316;50.718;7.328;2022-08-21T12:15:04;6.75;;;2.13;;
37455;SDS011;23316;50.718;7.328;2022-08-21T12:17:41;4.10;;;1.92;;
37455;SDS011;23316;50.718;7.328;2022-08-21T12:20:23;5.22;;;1.70;;
37455;SDS011;23316;50.718;7.328;2022-08-21T12:23:17;6.57;;;1.70;;
37455;SDS011;23316;50.718;7.328;2022-08-21T12:25:59;4.35;;;1.52;;
37455;SDS011;23316;50.718;7.328;2022-08-21T12:28:30;5.00;;;1.67;;
37455;SDS011;23316;50.718;7.328;2022-08-21T12:30:58;3.45;;;1.42;;
37455;SDS011;23316;50.718;7.328;2022-08-21T12:33:26;4.13;;;1.40;;
37455;SDS011;23316;50.718;7.328;2022-08-21T12:36:01;5.35;;;1.95;;
37455;SDS011;23316;50.718;7.328;2022-08-21T12:38:34;3.42;;;1.40;;
37455;SDS011;23316;50.718;7.328;2022-08-21T12:41:10;9.10;;;1.88;;
37455;SDS011;23316;50.718;7.328;2022-08-21T12:43:45;6.20;;;1.77;;
37455;SDS011;23316;50.718;7.328;2022-08-21T12:46:18;11.07;;;2.05;;
37455;SDS011;23316;50.718;7.328;2022-08-21T12:48:49;4.72;;;1.80;;
37455;SDS011;23316;50.718;7.328;2022-08-21T12:53:51;6.50;;;2.10;;
37455;SDS011;23316;50.718;7.328;2022-08-21T12:56:21;6.82;;;1.67;;
37455;SDS011;23316;50.718;7.328;2022-08-21T12:58:51;4.78;;;1.80;;
37455;SDS011;23316;50.718;7.328;2022-08-21T13:01:23;6.25;;;1.70;;
37455;SDS011;23316;50.718;7.328;2022-08-21T13:03:54;4.30;;;1.75;;
37455;SDS011;23316;50.718;7.328;2022-08-21T13:06:24;4.53;;;1.60;;
37455;SDS011;23316;50.718;7.328;2022-08-21T13:09:04;4.50;;;1.45;;
37455;SDS011;23316;50.718;7.328;2022-08-21T13:11:33;5.95;;;1.33;;
37455;SDS011;23316;50.718;7.328;2022-08-21T13:14:02;3.28;;;1.30;;
37455;SDS011;23316;50.718;7.328;2022-08-21T13:16:30;6.03;;;1.77;;
37455;SDS011;23316;50.718;7.328;2022-08-21T13:18:59;4.13;;;1.50;;
37455;SDS011;23316;50.718;7.328;2022-08-21T13:21:29;3.40;;;1.20;;
37455;SDS011;23316;50.718;7.328;2022-08-21T13:24:13;3.20;;;1.33;;
37455;SDS011;23316;50.718;7.328;2022-08-21T13:26:43;4.72;;;1.45;;
37455;SDS011;23316;50.718;7.328;2022-08-21T13:29:12;3.13;;;1.60;;
37455;SDS011;23316;50.718;7.328;2022-08-21T13:31:42;3.63;;;1.52;;
37455;SDS011;23316;50.718;7.328;2022-08-21T13:34:14;3.33;;;1.50;;
37455;SDS011;23316;50.718;7.328;2022-08-21T13:36:43;5.30;;;1.63;;
37455;SDS011;23316;50.718;7.328;2022-08-21T13:39:14;4.50;;;1.45;;
37455;SDS011;23316;50.718;7.328;2022-08-21T13:41:44;3.00;;;1.38;;
37455;SDS011;23316;50.718;7.328;2022-08-21T13:44:16;4.70;;;1.75;;
37455;SDS011;23316;50.718;7.328;2022-08-21T13:46:45;4.80;;;1.77;;
37455;SDS011;23316;50.718;7.328;2022-08-21T13:49:14;6.88;;;1.80;;
37455;SDS011;23316;50.718;7.328;2022-08-21T13:51:43;4.57;;;1.63;;
37455;SDS011;23316;50.718;7.328;2022-08-21T13:54:21;3.83;;;1.38;;
37455;SDS011;23316;50.718;7.328;2022-08-21T13:56:52;5.25;;;1.70;;
37455;SDS011;23316;50.718;7.328;2022-08-21T13:59:24;6.82;;;1.65;;
37455;SDS011;23316;50.718;7.328;2022-08-21T14:01:54;11.55;;;1.80;;
37455;SDS011;23316;50.718;7.328;2022-08-21T14:04:26;5.20;;;2.03;;
37455;SDS011;23316;50.718;7.328;2022-08-21T14:06:59;5.18;;;1.70;;
37455;SDS011;23316;50.718;7.328;2022-08-21T14:09:29;3.60;;;1.35;;
37455;SDS011;23316;50.718;7.328;2022-08-21T14:11:59;4.28;;;1.48;;
37455;SDS011;23316;50.718;7.328;2022-08-21T14:14:29;4.85;;;1.58;;
37455;SDS011;23316;50.718;7.328;2022-08-21T14:17:00;4.40;;;1.42;;
37455;SDS011;23316;50.718;7.328;2022-08-21T14:19:35;4.03;;;1.48;;
37455;SDS011;23316;50.718;7.328;2022-08-21T14:25:06;5.53;;;1.65;;
37455;SDS011;23316;50.718;7.328;2022-08-21T14:27:35;3.67;;;1.83;;
37455;SDS011;23316;50.718;7.328;2022-08-21T14:30:11;5.25;;;1.60;;
37455;SDS011;23316;50.718;7.328;2022-08-21T14:32:43;5.13;;;1.52;;
37455;SDS011;23316;50.718;7.328;2022-08-21T14:35:12;3.22;;;1.30;;
37455;SDS011;23316;50.718;7.328;2022-08-21T14:37:41;4.78;;;1.67;;
37455;SDS011;23316;50.718;7.328;2022-08-21T14:40:11;8.25;;;2.00;;
37455;SDS011;23316;50.718;7.328;2022-08-21T14:42:39;6.55;;;1.80;;
37455;SDS011;23316;50.718;7.328;2022-08-21T14:45:10;5.68;;;1.42;;
37455;SDS011;23316;50.718;7.328;2022-08-21T14:47:40;5.03;;;1.53;;
37455;SDS011;23316;50.718;7.328;2022-08-21T14:50:09;5.40;;;1.50;;
37455;SDS011;23316;50.718;7.328;2022-08-21T14:52:37;4.20;;;1.42;;
37455;SDS011;23316;50.718;7.328;2022-08-21T14:55:06;4.82;;;1.45;;
37455;SDS011;23316;50.718;7.328;2022-08-21T14:57:37;5.30;;;1.35;;
37455;SDS011;23316;50.718;7.328;2022-08-21T15:00:05;4.63;;;1.42;;
37455;SDS011;23316;50.718;7.328;2022-08-21T15:02:33;6.95;;;2.03;;
37455;SDS011;23316;50.718;7.328;2022-08-21T15:05:00;4.40;;;1.50;;
37455;SDS011;23316;50.718;7.328;2022-08-21T15:07:28;4.05;;;1.40;;
37455;SDS011;23316;50.718;7.328;2022-08-21T15:09:55;3.38;;;1.40;;